createdAt,value
2023-05-09T00:01:14.145Z,3.50
2023-05-09T00:05:17.432Z,3.00
2023-05-09T00:09:21.914Z,3.17
2023-05-09T00:13:25.345Z,3.38
2023-05-09T00:17:28.747Z,2.80
2023-05-09T00:21:32.029Z,3.38
2023-05-09T00:25:36.486Z,2.75
2023-05-09T00:29:39.462Z,3.05
2023-05-09T00:33:42.617Z,2.97
2023-05-09T00:37:45.579Z,3.20
2023-05-09T00:41:50.396Z,3.10
2023-05-09T00:45:53.630Z,3.10
2023-05-09T00:49:58.204Z,3.10
2023-05-09T00:54:01.330Z,3.60
2023-05-09T00:58:06.246Z,3.78
2023-05-09T01:02:09.372Z,3.10
2023-05-09T01:06:18.092Z,3.38
2023-05-09T01:10:27.023Z,3.00
2023-05-09T01:14:43.282Z,3.25
2023-05-09T01:18:51.344Z,3.15
2023-05-09T01:23:02.527Z,3.50
2023-05-09T01:27:22.511Z,3.03
2023-05-09T01:31:28.512Z,3.30
2023-05-09T01:35:34.305Z,3.42
2023-05-09T01:39:41.313Z,3.15
2023-05-09T01:43:47.597Z,3.30
2023-05-09T01:47:52.545Z,3.22
2023-05-09T01:51:57.463Z,3.22
2023-05-09T01:56:01.762Z,3.00
2023-05-09T02:00:07.977Z,3.10
2023-05-09T02:04:19.215Z,2.78
2023-05-09T02:08:22.448Z,2.80
2023-05-09T02:12:25.751Z,3.05
2023-05-09T02:16:30.065Z,3.47
2023-05-09T02:20:35.978Z,3.17
2023-05-09T02:24:39.314Z,2.50
2023-05-09T02:28:45.297Z,2.80
2023-05-09T02:32:51.889Z,2.97
2023-05-09T02:36:57.146Z,3.10
2023-05-09T02:41:00.165Z,3.17
2023-05-09T02:45:03.472Z,3.28
2023-05-09T02:49:06.449Z,3.33
2023-05-09T02:53:11.108Z,3.05
2023-05-09T02:57:16.382Z,2.92
2023-05-09T03:01:19.483Z,2.92
2023-05-09T03:05:22.784Z,3.00
2023-05-09T03:09:27.476Z,2.85
2023-05-09T03:13:30.830Z,3.35
2023-05-09T03:17:34.930Z,2.65
2023-05-09T03:21:38.061Z,2.90
2023-05-09T03:25:42.520Z,3.10
2023-05-09T03:29:45.620Z,3.03
2023-05-09T03:33:51.060Z,3.25
2023-05-09T03:37:54.700Z,3.08
2023-05-09T03:41:59.357Z,3.10
2023-05-09T03:46:04.103Z,2.97
2023-05-09T03:50:09.437Z,2.90
2023-05-09T03:54:13.515Z,3.08
2023-05-09T03:58:19.372Z,2.97
2023-05-09T04:02:23.180Z,3.10
2023-05-09T04:06:26.594Z,3.20
2023-05-09T04:15:23.220Z,2.92
2023-05-09T04:19:26.654Z,2.85
2023-05-09T04:23:29.877Z,3.38
2023-05-09T04:27:35.091Z,3.00
2023-05-09T04:31:40.415Z,3.20
2023-05-09T04:35:46.556Z,3.28
2023-05-09T04:39:49.850Z,3.10
2023-05-09T04:43:59.690Z,3.00
2023-05-09T04:48:05.415Z,2.92
2023-05-09T04:52:08.569Z,3.05
2023-05-09T04:56:11.836Z,3.00
2023-05-09T05:00:16.718Z,3.42
2023-05-09T05:04:23.250Z,3.05
2023-05-09T05:08:26.702Z,3.10
2023-05-09T05:12:31.013Z,2.88
2023-05-09T05:16:35.034Z,2.78
2023-05-09T05:20:42.652Z,3.42
2023-05-09T05:24:45.993Z,3.05
2023-05-09T05:28:55.387Z,3.10
2023-05-09T05:32:59.094Z,3.25
2023-05-09T05:37:05.072Z,2.97
2023-05-09T05:41:11.253Z,2.90
2023-05-09T05:45:16.144Z,2.95
2023-05-09T05:49:25.029Z,2.70
2023-05-09T05:53:31.520Z,3.00
2023-05-09T05:57:37.760Z,3.00
2023-05-09T06:01:42.715Z,2.85
2023-05-09T06:05:47.669Z,3.00
2023-05-09T06:09:52.201Z,2.80
2023-05-09T06:13:55.289Z,3.03
2023-05-09T06:17:58.523Z,2.95
2023-05-09T06:22:01.993Z,2.47
2023-05-09T06:26:06.763Z,2.50
2023-05-09T06:30:24.489Z,2.60
2023-05-09T06:34:29.096Z,3.00
2023-05-09T06:38:32.095Z,2.85
2023-05-09T06:42:36.464Z,2.75
2023-05-09T06:46:39.610Z,2.63
2023-05-09T06:50:42.715Z,2.60
2023-05-09T06:54:45.815Z,2.65
2023-05-09T06:58:50.347Z,2.67
2023-05-09T07:02:53.555Z,2.35
2023-05-09T07:06:56.597Z,2.63
2023-05-09T07:10:59.639Z,2.58
2023-05-09T07:15:04.036Z,2.60
2023-05-09T07:19:07.051Z,2.40
2023-05-09T07:23:10.364Z,2.40
2023-05-09T07:27:13.613Z,2.60
2023-05-09T07:31:18.098Z,3.13
2023-05-09T07:35:21.574Z,2.58
2023-05-09T07:39:24.638Z,2.65
2023-05-09T07:43:27.848Z,2.60
2023-05-09T07:47:32.302Z,2.65
2023-05-09T07:51:35.364Z,2.70
2023-05-09T07:55:38.429Z,2.80
2023-05-09T07:59:42.392Z,2.60
2023-05-09T08:03:46.870Z,2.80
2023-05-09T08:07:49.979Z,3.08
2023-05-09T08:12:00.451Z,2.70
2023-05-09T08:16:03.613Z,2.70
2023-05-09T08:20:09.142Z,2.92
2023-05-09T08:24:12.451Z,2.50
2023-05-09T08:28:15.878Z,2.65
2023-05-09T08:32:19.912Z,2.65
2023-05-09T08:36:24.328Z,2.33
2023-05-09T08:40:27.352Z,2.28
2023-05-09T08:44:32.136Z,2.67
2023-05-09T08:48:38.092Z,2.28
2023-05-09T08:52:43.201Z,3.00
2023-05-09T08:56:46.451Z,2.63
2023-05-09T09:00:50.642Z,2.55
2023-05-09T09:04:55.325Z,2.42
2023-05-09T09:09:00.604Z,2.28
2023-05-09T09:13:06.196Z,2.47
2023-05-09T09:17:12.765Z,2.67
2023-05-09T09:21:17.275Z,2.50
2023-05-09T09:25:21.931Z,2.72
2023-05-09T09:29:28.785Z,2.47
2023-05-09T09:33:31.890Z,2.60
2023-05-09T09:37:36.384Z,2.50
2023-05-09T09:41:41.283Z,2.60
2023-05-09T09:45:44.657Z,2.80
2023-05-09T09:49:48.568Z,2.40
2023-05-09T09:53:52.165Z,2.78
2023-05-09T09:57:56.733Z,2.28
2023-05-09T10:02:02.896Z,2.42
2023-05-09T10:06:12.050Z,2.17
2023-05-09T10:10:15.269Z,2.10
2023-05-09T10:14:21.354Z,2.17
2023-05-09T10:18:28.221Z,2.63
2023-05-09T10:22:33.697Z,2.67
2023-05-09T10:26:42.295Z,2.53
2023-05-09T10:30:58.107Z,2.40
2023-05-09T10:35:06.401Z,2.47
2023-05-09T10:39:10.579Z,2.67
2023-05-09T10:43:14.542Z,2.35
2023-05-09T10:47:19.813Z,2.28
2023-05-09T10:51:24.625Z,2.38
2023-05-09T10:55:37.757Z,2.00
2023-05-09T10:59:42.935Z,1.80
2023-05-09T11:03:58.436Z,1.98
2023-05-09T11:08:19.467Z,2.15
2023-05-09T11:12:25.054Z,1.85
2023-05-09T11:16:28.208Z,1.90
2023-05-09T11:20:35.580Z,1.90
2023-05-09T11:24:39.400Z,1.77
2023-05-09T11:28:42.748Z,2.08
2023-05-09T11:32:47.977Z,1.90
2023-05-09T11:36:53.551Z,2.05
2023-05-09T11:40:57.822Z,2.30
2023-05-09T11:45:00.941Z,2.20
2023-05-09T11:49:04.005Z,1.95
2023-05-09T11:53:12.487Z,1.70
2023-05-09T11:57:17.545Z,1.98
2023-05-09T12:01:21.292Z,1.80
2023-05-09T12:05:24.714Z,1.80
2023-05-09T12:09:31.634Z,1.65
2023-05-09T12:13:35.407Z,1.92
2023-05-09T12:17:38.585Z,2.00
2023-05-09T12:21:41.684Z,1.80
2023-05-09T12:25:51.129Z,1.70
2023-05-09T12:29:55.147Z,2.00
2023-05-09T12:33:58.427Z,1.80
2023-05-09T12:38:01.676Z,2.05
2023-05-09T12:42:14.180Z,2.05
2023-05-09T12:46:20.093Z,1.85
2023-05-09T12:50:23.426Z,1.70
2023-05-09T12:54:27.649Z,2.28
2023-05-09T12:58:33.674Z,2.08
2023-05-09T13:02:38.895Z,1.90
2023-05-09T13:06:50.693Z,1.83
2023-05-09T13:11:03.927Z,1.80
2023-05-09T13:15:13.995Z,1.92
2023-05-09T13:19:17.515Z,1.65
2023-05-09T13:23:20.542Z,1.70
2023-05-09T13:27:23.677Z,1.77
2023-05-09T13:31:28.941Z,1.88
2023-05-09T13:35:32.073Z,1.98
2023-05-09T13:39:35.117Z,1.90
2023-05-09T13:43:38.686Z,1.67
2023-05-09T13:47:43.152Z,1.67
2023-05-09T13:51:46.267Z,1.90
2023-05-09T13:55:49.462Z,1.80
2023-05-09T13:59:53.374Z,1.70
2023-05-09T14:03:57.927Z,2.08
2023-05-09T14:08:01.658Z,1.65
2023-05-09T14:12:05.134Z,1.80
2023-05-09T14:16:08.517Z,2.22
2023-05-09T14:20:15.776Z,1.88
2023-05-09T14:24:19.170Z,1.60
2023-05-09T14:28:22.531Z,1.88
2023-05-09T14:32:26.468Z,1.85
2023-05-09T14:36:31.405Z,1.60
2023-05-09T14:40:34.465Z,1.70
2023-05-09T14:44:38.231Z,1.98
2023-05-09T14:48:41.302Z,1.70
2023-05-09T14:52:45.735Z,1.70
2023-05-09T14:56:49.162Z,1.90
2023-05-09T15:00:53.010Z,1.60
2023-05-09T15:04:57.061Z,1.85
2023-05-09T15:09:01.439Z,1.90
2023-05-09T15:13:05.929Z,1.60
2023-05-09T15:17:09.141Z,1.80
2023-05-09T15:21:12.859Z,1.80
2023-05-09T15:25:17.939Z,1.50
2023-05-09T15:29:21.740Z,1.70
2023-05-09T15:33:25.014Z,1.70
2023-05-09T15:37:28.168Z,1.33
2023-05-09T15:41:32.864Z,2.13
2023-05-09T15:45:37.889Z,1.60
2023-05-09T15:49:40.982Z,1.60
2023-05-09T15:53:44.029Z,1.67
2023-05-09T15:57:48.468Z,1.50
2023-05-09T16:01:51.532Z,1.58
2023-05-09T16:05:54.691Z,1.80
2023-05-09T16:09:57.734Z,1.73
2023-05-09T16:14:02.210Z,1.70
2023-05-09T16:18:05.534Z,1.70
2023-05-09T16:22:08.542Z,1.52
2023-05-09T16:26:11.752Z,1.38
2023-05-09T16:30:17.405Z,1.45
2023-05-09T16:34:21.017Z,1.50
2023-05-09T16:38:24.003Z,1.65
2023-05-09T16:42:28.552Z,1.60
2023-05-09T16:46:33.687Z,1.58
2023-05-09T16:50:37.858Z,1.55
2023-05-09T16:54:41.164Z,1.65
2023-05-09T16:58:44.959Z,1.40
2023-05-09T17:02:49.426Z,1.50
2023-05-09T17:06:53.282Z,1.80
2023-05-09T17:10:56.343Z,1.55
2023-05-09T17:14:59.406Z,1.70
2023-05-09T17:19:04.349Z,1.60
2023-05-09T17:23:07.387Z,1.50
2023-05-09T17:27:11.747Z,1.50
2023-05-09T17:31:14.988Z,1.60
2023-05-09T17:35:20.897Z,1.45
2023-05-09T17:39:24.483Z,1.20
2023-05-09T17:43:28.520Z,1.40
2023-05-09T17:47:31.885Z,1.38
2023-05-09T17:51:36.574Z,1.30
2023-05-09T17:55:39.677Z,1.60
2023-05-09T17:59:42.846Z,1.55
2023-05-09T18:03:46.114Z,1.30
2023-05-09T18:07:50.739Z,1.58
2023-05-09T18:11:53.766Z,1.48
2023-05-09T18:15:59.709Z,1.65
2023-05-09T18:20:03.106Z,1.55
2023-05-09T18:24:09.243Z,1.58
2023-05-09T18:28:12.291Z,1.38
2023-05-09T18:32:15.625Z,1.50
2023-05-09T18:36:18.659Z,1.40
2023-05-09T18:40:23.090Z,1.48
2023-05-09T18:44:26.224Z,1.40
2023-05-09T18:48:29.456Z,1.40
2023-05-09T18:52:33.042Z,1.40
2023-05-09T18:56:39.406Z,1.67
2023-05-09T19:00:42.855Z,1.50
2023-05-09T19:04:46.766Z,1.38
2023-05-09T19:08:49.846Z,1.50
2023-05-09T19:12:54.400Z,1.65
2023-05-09T19:16:57.560Z,1.50
2023-05-09T19:21:00.857Z,1.45
2023-05-09T19:25:03.995Z,1.48
2023-05-09T19:29:08.785Z,1.38
2023-05-09T19:33:12.523Z,1.50
2023-05-09T19:37:15.538Z,1.50
2023-05-09T19:41:18.615Z,1.52
2023-05-09T19:45:23.054Z,1.65
2023-05-09T19:49:26.257Z,2.10
2023-05-09T19:53:29.349Z,1.55
2023-05-09T19:57:33.182Z,1.70
2023-05-09T20:01:38.082Z,1.60
2023-05-09T20:05:41.207Z,1.70
2023-05-09T20:09:44.318Z,1.60
2023-05-09T20:13:47.375Z,1.70
2023-05-09T20:17:51.863Z,1.35
2023-05-09T20:21:54.889Z,1.70
2023-05-09T20:25:57.977Z,1.40
2023-05-09T20:30:01.152Z,1.80
2023-05-09T20:34:05.584Z,1.50
2023-05-09T20:38:08.616Z,1.60
2023-05-09T20:42:12.089Z,1.75
2023-05-09T20:46:15.194Z,1.50
2023-05-09T20:50:19.797Z,1.55
2023-05-09T20:54:24.010Z,1.50
2023-05-09T20:58:28.101Z,1.60
2023-05-09T21:02:31.295Z,1.45
2023-05-09T21:06:35.977Z,1.75
2023-05-09T21:10:39.023Z,1.30
2023-05-09T21:14:42.030Z,1.63
2023-05-09T21:18:45.057Z,1.50
2023-05-09T21:22:49.701Z,1.15
2023-05-09T21:26:52.801Z,1.40
2023-05-09T21:30:56.103Z,1.40
2023-05-09T21:34:59.133Z,1.25
2023-05-09T21:39:09.248Z,1.30
2023-05-09T21:43:12.785Z,1.60
2023-05-09T21:47:15.909Z,1.20
2023-05-09T21:51:18.991Z,1.27
2023-05-09T21:55:23.675Z,1.20
2023-05-09T21:59:26.708Z,1.23
2023-05-09T22:03:29.874Z,1.13
2023-05-09T22:07:32.960Z,1.27
2023-05-09T22:11:37.768Z,1.10
2023-05-09T22:15:41.115Z,1.40
2023-05-09T22:19:44.810Z,1.20
2023-05-09T22:23:48.547Z,1.27
2023-05-09T22:27:53.052Z,1.40
2023-05-09T22:31:56.121Z,1.30
2023-05-09T22:35:59.149Z,1.58
2023-05-09T22:40:02.213Z,1.10
2023-05-09T22:44:07.010Z,1.45
2023-05-09T22:48:10.170Z,1.23
2023-05-09T22:52:13.330Z,1.40
2023-05-09T22:56:16.394Z,1.17
2023-05-09T23:28:57.525Z,1.50
2023-05-09T23:33:00.688Z,1.45
2023-05-09T23:37:05.130Z,1.52
2023-05-09T23:41:08.241Z,1.50
2023-05-09T23:45:13.359Z,1.13
2023-05-09T23:49:16.414Z,1.30
2023-05-09T23:53:19.565Z,1.40
2023-05-09T23:57:22.538Z,1.50
